createdAt,value
2022-10-03T00:00:14.047Z,9.10
2022-10-03T00:03:22.931Z,9.00
2022-10-03T00:06:11.110Z,9.00
2022-10-03T00:09:01.548Z,9.00
2022-10-03T00:11:38.167Z,8.90
2022-10-03T00:14:17.067Z,8.80
2022-10-03T00:16:52.775Z,8.80
2022-10-03T00:19:33.001Z,8.80
2022-10-03T00:22:19.207Z,8.80
2022-10-03T00:24:51.549Z,8.80
2022-10-03T00:27:31.143Z,8.70
2022-10-03T00:30:09.730Z,8.70
2022-10-03T00:32:47.808Z,8.70
2022-10-03T00:35:34.240Z,8.70
2022-10-03T00:38:09.785Z,8.70
2022-10-03T00:41:09.666Z,8.80
2022-10-03T00:44:06.586Z,8.80
2022-10-03T00:47:05.627Z,8.80
2022-10-03T00:49:59.850Z,8.80
2022-10-03T00:52:44.823Z,8.80
2022-10-03T00:55:23.594Z,8.80
2022-10-03T00:58:06.152Z,8.80
2022-10-03T01:00:35.840Z,8.80
2022-10-03T01:03:20.647Z,8.80
2022-10-03T01:06:00.743Z,8.80
2022-10-03T01:08:44.454Z,8.80
2022-10-03T01:11:24.920Z,8.90
2022-10-03T01:14:06.186Z,8.80
2022-10-03T01:16:43.307Z,8.80
2022-10-03T01:19:42.976Z,8.80
2022-10-03T01:22:28.671Z,8.80
2022-10-03T01:25:00.412Z,8.80
2022-10-03T01:28:00.688Z,8.80
2022-10-03T01:30:35.636Z,8.80
2022-10-03T01:33:10.672Z,8.80
2022-10-03T01:35:53.355Z,8.80
2022-10-03T01:38:28.337Z,8.80
2022-10-03T01:41:03.298Z,8.80
2022-10-03T01:43:42.873Z,8.80
2022-10-03T01:46:18.873Z,8.80
2022-10-03T01:48:56.737Z,8.80
2022-10-03T01:51:30.940Z,8.80
2022-10-03T01:54:18.330Z,8.80
2022-10-03T01:56:54.461Z,8.80
2022-10-03T01:59:31.901Z,8.80
2022-10-03T02:02:07.663Z,8.80
2022-10-03T02:04:38.796Z,8.70
2022-10-03T02:07:22.048Z,8.70
2022-10-03T02:10:01.661Z,8.60
2022-10-03T02:12:35.250Z,8.60
2022-10-03T02:15:15.524Z,8.60
2022-10-03T02:17:52.391Z,8.60
2022-10-03T02:20:28.235Z,8.60
2022-10-03T02:23:18.660Z,8.60
2022-10-03T02:26:00.792Z,8.60
2022-10-03T02:29:10.569Z,8.50
2022-10-03T02:32:24.164Z,8.50
2022-10-03T02:35:24.003Z,8.50
2022-10-03T02:38:25.817Z,8.50
2022-10-03T02:41:24.244Z,8.50
2022-10-03T02:44:21.941Z,8.50
2022-10-03T02:47:29.367Z,8.50
2022-10-03T02:50:29.347Z,8.50
2022-10-03T02:53:30.062Z,8.50
2022-10-03T02:56:42.503Z,8.50
2022-10-03T02:59:43.689Z,8.50
2022-10-03T03:02:36.733Z,8.50
2022-10-03T03:05:31.203Z,8.50
2022-10-03T03:08:26.355Z,8.50
2022-10-03T03:11:09.646Z,8.50
2022-10-03T03:14:21.754Z,8.50
2022-10-03T03:17:02.017Z,8.50
2022-10-03T03:19:52.234Z,8.50
2022-10-03T03:22:36.063Z,8.50
2022-10-03T03:25:22.056Z,8.50
2022-10-03T03:28:02.229Z,8.50
2022-10-03T03:30:36.573Z,8.50
2022-10-03T03:33:12.475Z,8.50
2022-10-03T03:35:59.015Z,8.50
2022-10-03T03:38:36.763Z,8.50
2022-10-03T03:41:22.486Z,8.50
2022-10-03T03:44:15.608Z,8.50
2022-10-03T03:46:59.163Z,8.60
2022-10-03T03:49:44.075Z,8.50
2022-10-03T03:52:28.760Z,8.50
2022-10-03T03:55:23.624Z,8.50
2022-10-03T03:58:10.956Z,8.60
2022-10-03T04:00:56.374Z,8.50
2022-10-03T04:03:43.473Z,8.50
2022-10-03T04:06:27.356Z,8.50
2022-10-03T04:09:26.999Z,8.50
2022-10-03T04:12:10.368Z,8.50
2022-10-03T04:15:03.455Z,8.50
2022-10-03T04:18:06.295Z,8.50
2022-10-03T04:21:00.366Z,8.50
2022-10-03T04:23:48.263Z,8.50
2022-10-03T04:26:31.368Z,8.50
2022-10-03T04:29:35.201Z,8.50
2022-10-03T04:32:16.801Z,8.50
2022-10-03T04:35:00.327Z,8.50
2022-10-03T04:37:35.610Z,8.40
2022-10-03T04:40:17.873Z,8.50
2022-10-03T04:42:53.452Z,8.40
2022-10-03T04:45:42.402Z,8.50
2022-10-03T04:48:18.388Z,8.50
2022-10-03T04:50:57.496Z,8.50
2022-10-03T04:53:42.480Z,8.40
2022-10-03T04:56:41.287Z,8.40
2022-10-03T04:59:24.615Z,8.40
2022-10-03T05:01:57.281Z,8.40
2022-10-03T05:04:33.772Z,8.40
2022-10-03T05:07:09.380Z,8.40
2022-10-03T05:09:47.221Z,8.40
2022-10-03T05:12:21.004Z,8.40
2022-10-03T05:15:02.488Z,8.40
2022-10-03T05:17:42.256Z,8.40
2022-10-03T05:20:45.652Z,8.40
2022-10-03T05:23:26.215Z,8.40
2022-10-03T05:26:23.475Z,8.40
2022-10-03T05:29:01.806Z,8.40
2022-10-03T05:31:47.328Z,8.50
2022-10-03T05:34:27.877Z,8.50
2022-10-03T05:37:20.180Z,8.50
2022-10-03T05:39:57.705Z,8.40
2022-10-03T05:42:44.726Z,8.50
2022-10-03T05:45:25.880Z,8.50
2022-10-03T05:48:02.845Z,8.60
2022-10-03T05:50:43.671Z,8.50
2022-10-03T05:53:41.338Z,8.50
2022-10-03T05:56:18.128Z,8.60
2022-10-03T05:59:14.235Z,8.60
2022-10-03T06:02:14.877Z,8.60
2022-10-03T06:05:14.729Z,8.60
2022-10-03T06:07:58.416Z,8.70
2022-10-03T06:10:44.265Z,8.60
2022-10-03T06:13:18.450Z,8.70
2022-10-03T06:15:57.558Z,8.70
2022-10-03T06:18:43.274Z,8.80
2022-10-03T06:21:48.197Z,8.80
2022-10-03T06:24:44.276Z,8.90
2022-10-03T06:27:57.762Z,9.00
2022-10-03T06:30:47.778Z,9.00
2022-10-03T06:33:54.489Z,9.10
2022-10-03T06:37:08.369Z,9.10
2022-10-03T06:39:57.797Z,9.20
2022-10-03T06:42:46.818Z,9.20
2022-10-03T06:46:09.215Z,9.20
2022-10-03T06:49:34.273Z,9.30
2022-10-03T06:52:30.583Z,9.30
2022-10-03T06:55:36.156Z,9.20
2022-10-03T06:58:44.068Z,9.30
2022-10-03T07:01:43.896Z,9.30
2022-10-03T07:04:37.192Z,9.30
2022-10-03T07:07:37.350Z,9.40
2022-10-03T07:10:28.801Z,9.40
2022-10-03T07:13:42.944Z,9.50
2022-10-03T07:16:49.170Z,9.40
2022-10-03T07:19:48.417Z,9.40
2022-10-03T07:22:49.785Z,9.50
2022-10-03T07:25:41.829Z,9.60
2022-10-03T07:28:28.304Z,9.70
2022-10-03T07:31:08.207Z,9.80
2022-10-03T07:34:19.587Z,9.90
2022-10-03T07:37:34.222Z,10.00
2022-10-03T07:40:36.692Z,10.10
2022-10-03T07:43:32.564Z,10.20
2022-10-03T07:46:28.867Z,10.30
2022-10-03T07:49:18.420Z,10.50
2022-10-03T07:52:05.062Z,10.60
2022-10-03T07:54:40.345Z,10.70
2022-10-03T07:57:50.806Z,10.80
2022-10-03T08:00:24.412Z,10.90
2022-10-03T08:03:26.273Z,11.00
2022-10-03T08:06:18.358Z,11.00
2022-10-03T08:09:20.941Z,10.90
2022-10-03T08:12:24.174Z,10.90
2022-10-03T08:15:04.953Z,11.00
2022-10-03T08:18:06.719Z,11.10
2022-10-03T08:20:43.891Z,11.20
2022-10-03T08:23:48.984Z,11.20
2022-10-03T08:26:22.211Z,11.20
2022-10-03T08:29:34.132Z,11.20
2022-10-03T08:32:48.413Z,11.50
2022-10-03T08:35:35.309Z,11.70
2022-10-03T08:38:27.912Z,12.00
2022-10-03T08:41:21.913Z,12.40
2022-10-03T08:44:50.668Z,13.30
2022-10-03T08:47:51.480Z,13.30
2022-10-03T08:50:55.709Z,13.30
2022-10-03T08:53:57.621Z,13.20
2022-10-03T08:56:35.989Z,12.90
2022-10-03T08:59:17.291Z,12.70
2022-10-03T09:02:28.272Z,12.50
2022-10-03T09:05:32.508Z,12.10
2022-10-03T09:08:44.457Z,11.90
2022-10-03T09:12:03.360Z,11.60
2022-10-03T09:15:07.211Z,11.40
2022-10-03T09:18:01.495Z,11.30
2022-10-03T09:21:10.028Z,11.10
2022-10-03T09:24:07.997Z,11.00
2022-10-03T09:27:15.001Z,11.00
2022-10-03T09:30:17.687Z,11.20
2022-10-03T09:33:25.688Z,11.40
2022-10-03T09:36:31.255Z,11.90
2022-10-03T09:39:30.590Z,12.10
2022-10-03T09:42:36.712Z,11.90
2022-10-03T09:45:40.954Z,12.90
2022-10-03T09:48:33.833Z,13.30
2022-10-03T09:51:34.446Z,13.80
2022-10-03T09:54:37.717Z,14.70
2022-10-03T09:57:46.477Z,14.60
2022-10-03T10:00:39.516Z,13.80
2022-10-03T10:03:48.564Z,13.30
2022-10-03T10:06:49.451Z,13.10
2022-10-03T10:09:51.156Z,13.00
2022-10-03T10:12:48.489Z,12.80
2022-10-03T10:15:47.536Z,12.70
2022-10-03T10:19:06.542Z,12.70
2022-10-03T10:21:59.947Z,13.00
2022-10-03T10:25:04.628Z,13.10
2022-10-03T10:28:17.184Z,13.40
2022-10-03T10:31:16.832Z,13.90
2022-10-03T10:34:41.044Z,13.90
2022-10-03T10:38:03.353Z,13.50
2022-10-03T10:41:14.351Z,13.20
2022-10-03T10:44:14.151Z,12.60
2022-10-03T10:47:11.036Z,12.30
2022-10-03T10:50:21.335Z,12.50
2022-10-03T10:53:26.424Z,12.50
2022-10-03T10:56:30.578Z,12.60
2022-10-03T10:59:49.551Z,12.90
2022-10-03T11:02:55.193Z,13.50
2022-10-03T11:05:47.572Z,14.10
2022-10-03T11:09:00.903Z,14.40
2022-10-03T11:12:14.139Z,14.30
2022-10-03T11:15:18.082Z,14.30
2022-10-03T11:18:16.410Z,13.80
2022-10-03T11:21:18.628Z,14.00
2022-10-03T11:24:13.283Z,14.10
2022-10-03T11:27:17.631Z,13.50
2022-10-03T11:30:08.698Z,13.50
2022-10-03T11:33:15.966Z,13.40
2022-10-03T11:36:21.504Z,13.50
2022-10-03T11:39:02.646Z,13.90
2022-10-03T11:41:41.685Z,14.10
2022-10-03T11:44:32.138Z,13.80
2022-10-03T11:47:30.906Z,14.10
2022-10-03T11:50:40.957Z,14.40
2022-10-03T11:53:22.268Z,14.50
2022-10-03T11:56:08.035Z,14.50
2022-10-03T11:58:48.932Z,14.20
2022-10-03T12:01:25.415Z,13.90
2022-10-03T12:04:00.130Z,13.50
2022-10-03T12:07:01.707Z,13.10
2022-10-03T12:09:37.744Z,12.90
2022-10-03T12:12:13.007Z,12.70
2022-10-03T12:14:46.751Z,12.60
2022-10-03T12:17:16.899Z,12.70
2022-10-03T12:19:57.893Z,12.80
2022-10-03T12:22:43.240Z,12.70
2022-10-03T12:25:21.298Z,12.80
2022-10-03T12:27:58.210Z,13.30
2022-10-03T12:30:29.100Z,13.50
2022-10-03T12:33:14.481Z,13.60
2022-10-03T12:35:50.675Z,13.30
2022-10-03T12:38:40.429Z,13.00
2022-10-03T12:41:21.544Z,12.90
2022-10-03T12:44:05.456Z,12.60
2022-10-03T12:46:44.069Z,12.80
2022-10-03T12:49:20.110Z,13.00
2022-10-03T12:51:55.565Z,13.30
2022-10-03T12:54:41.029Z,13.60
2022-10-03T12:57:32.141Z,14.00
2022-10-03T13:00:06.899Z,14.10
2022-10-03T13:02:38.885Z,14.30
2022-10-03T13:05:38.140Z,14.30
2022-10-03T13:08:19.655Z,14.30
2022-10-03T13:10:55.674Z,14.40
2022-10-03T13:13:28.608Z,14.40
2022-10-03T13:16:18.451Z,14.50
2022-10-03T13:18:54.133Z,14.60
2022-10-03T13:21:47.803Z,14.60
2022-10-03T13:24:32.504Z,14.70
2022-10-03T13:27:24.953Z,14.70
2022-10-03T13:30:01.979Z,14.60
2022-10-03T13:32:34.905Z,14.60
2022-10-03T13:35:39.543Z,14.60
2022-10-03T13:38:26.492Z,14.40
2022-10-03T13:41:03.396Z,14.10
2022-10-03T13:43:38.953Z,14.10
2022-10-03T13:46:13.707Z,14.10
2022-10-03T13:48:46.003Z,13.90
2022-10-03T13:51:28.421Z,14.00
2022-10-03T13:54:07.908Z,14.00
2022-10-03T13:56:46.640Z,14.00
2022-10-03T13:59:38.047Z,14.10
2022-10-03T14:02:20.485Z,14.10
2022-10-03T14:05:25.478Z,14.10
2022-10-03T14:08:02.524Z,14.20
2022-10-03T14:11:00.220Z,14.00
2022-10-03T14:13:38.193Z,13.80
2022-10-03T14:16:16.965Z,13.70
2022-10-03T14:18:53.516Z,13.50
2022-10-03T14:21:47.018Z,13.40
2022-10-03T14:24:31.583Z,13.40
2022-10-03T14:27:11.542Z,13.40
2022-10-03T14:29:52.560Z,13.20
2022-10-03T14:32:46.775Z,13.20
2022-10-03T14:35:27.109Z,13.20
2022-10-03T14:38:02.162Z,13.30
2022-10-03T14:40:36.334Z,13.40
2022-10-03T14:43:22.911Z,13.40
2022-10-03T14:45:54.301Z,13.40
2022-10-03T14:48:29.087Z,13.40
2022-10-03T14:51:05.643Z,13.50
2022-10-03T14:53:34.366Z,13.50
2022-10-03T14:56:07.185Z,13.50
2022-10-03T14:58:39.601Z,13.60
2022-10-03T15:01:14.741Z,13.50
2022-10-03T15:03:53.595Z,13.40
2022-10-03T15:06:34.505Z,13.40
2022-10-03T15:09:06.194Z,13.30
2022-10-03T15:11:37.145Z,13.30
2022-10-03T15:14:10.156Z,13.30
2022-10-03T15:16:46.602Z,13.20
2022-10-03T15:19:19.756Z,13.10
2022-10-03T15:21:49.935Z,13.10
2022-10-03T15:24:25.634Z,13.00
2022-10-03T15:26:57.229Z,12.80
2022-10-03T15:29:26.542Z,12.70
2022-10-03T15:31:57.639Z,12.50
2022-10-03T15:34:33.180Z,12.40
2022-10-03T15:37:07.653Z,12.30
2022-10-03T15:39:40.499Z,12.20
2022-10-03T15:42:23.028Z,12.10
2022-10-03T15:44:54.857Z,12.00
2022-10-03T15:47:24.765Z,12.00
2022-10-03T15:49:59.814Z,11.90
2022-10-03T15:52:36.760Z,11.80
2022-10-03T15:55:11.730Z,11.70
2022-10-03T15:57:45.429Z,11.70
2022-10-03T16:00:22.935Z,11.60
2022-10-03T16:02:57.376Z,11.60
2022-10-03T16:05:28.607Z,11.50
2022-10-03T16:08:02.636Z,11.30
2022-10-03T16:10:37.761Z,11.20
2022-10-03T16:13:20.089Z,11.10
2022-10-03T16:16:07.551Z,11.10
2022-10-03T16:19:02.639Z,11.00
2022-10-03T16:21:51.089Z,11.00
2022-10-03T16:24:35.411Z,10.90
2022-10-03T16:27:11.696Z,10.80
2022-10-03T16:29:44.952Z,10.70
2022-10-03T16:32:19.204Z,10.70
2022-10-03T16:34:49.780Z,10.60
2022-10-03T16:37:22.411Z,10.50
2022-10-03T16:39:56.966Z,10.40
2022-10-03T16:42:29.090Z,10.30
2022-10-03T16:45:01.614Z,10.30
2022-10-03T16:47:35.709Z,10.20
2022-10-03T16:50:22.874Z,10.20
2022-10-03T16:52:55.448Z,10.20
2022-10-03T16:55:27.881Z,10.10
2022-10-03T16:57:59.107Z,10.00
2022-10-03T17:00:36.183Z,10.00
2022-10-03T17:03:13.929Z,10.00
2022-10-03T17:05:47.210Z,10.00
2022-10-03T17:08:40.709Z,10.00
2022-10-03T17:11:10.044Z,10.10
2022-10-03T17:13:43.898Z,10.10
2022-10-03T17:16:17.026Z,10.20
2022-10-03T17:18:50.345Z,10.30
2022-10-03T17:21:26.184Z,10.30
2022-10-03T17:24:01.742Z,10.30
2022-10-03T17:26:35.486Z,10.40
2022-10-03T17:29:11.708Z,10.40
2022-10-03T17:31:46.034Z,10.40
2022-10-03T17:34:18.313Z,10.40
2022-10-03T17:37:08.142Z,10.50
2022-10-03T17:39:48.532Z,10.50
2022-10-03T17:42:42.106Z,10.50
2022-10-03T17:45:30.723Z,10.50
2022-10-03T17:48:04.489Z,10.50
2022-10-03T17:50:37.174Z,10.50
2022-10-03T17:53:05.948Z,10.50
2022-10-03T17:55:40.170Z,10.50
2022-10-03T17:58:16.772Z,10.50
2022-10-03T18:01:02.605Z,10.50
2022-10-03T18:03:36.340Z,10.50
2022-10-03T18:06:42.768Z,10.50
2022-10-03T18:09:24.795Z,10.40
2022-10-03T18:11:59.877Z,10.40
2022-10-03T18:14:37.864Z,10.40
2022-10-03T18:17:17.266Z,10.40
2022-10-03T18:19:59.767Z,10.40
2022-10-03T18:22:36.053Z,10.40
2022-10-03T18:25:35.009Z,10.40
2022-10-03T18:28:17.258Z,10.30
2022-10-03T18:31:06.479Z,10.30
2022-10-03T18:33:48.773Z,10.30
2022-10-03T18:36:20.309Z,10.30
2022-10-03T18:38:49.507Z,10.30
2022-10-03T18:41:19.208Z,10.30
2022-10-03T18:43:58.573Z,10.30
2022-10-03T18:46:30.283Z,10.30
2022-10-03T18:49:32.026Z,10.30
2022-10-03T18:51:59.055Z,10.30
2022-10-03T18:54:36.484Z,10.30
2022-10-03T18:57:09.900Z,10.20
2022-10-03T18:59:48.810Z,10.20
2022-10-03T19:02:24.109Z,10.20
2022-10-03T19:04:56.768Z,10.10
2022-10-03T19:07:27.100Z,10.10
2022-10-03T19:10:35.489Z,10.10
2022-10-03T19:13:13.443Z,10.00
2022-10-03T19:16:05.367Z,10.00
2022-10-03T19:18:42.781Z,10.00
2022-10-03T19:21:18.641Z,10.00
2022-10-03T19:23:48.564Z,9.90
2022-10-03T19:26:24.618Z,9.90
2022-10-03T19:28:55.969Z,9.90
2022-10-03T19:31:30.645Z,9.90
2022-10-03T19:34:02.022Z,9.90
2022-10-03T19:36:32.539Z,9.90
2022-10-03T19:39:01.699Z,9.90
2022-10-03T19:41:35.041Z,9.80
2022-10-03T19:44:08.429Z,9.80
2022-10-03T19:46:53.104Z,9.90
2022-10-03T19:49:50.840Z,9.80
2022-10-03T19:52:31.215Z,9.80
2022-10-03T19:55:06.246Z,9.70
2022-10-03T19:57:49.068Z,9.70
2022-10-03T20:00:29.290Z,9.70
2022-10-03T20:03:07.986Z,9.60
2022-10-03T20:05:42.846Z,9.60
2022-10-03T20:08:22.962Z,9.50
2022-10-03T20:11:11.311Z,9.50
2022-10-03T20:13:43.860Z,9.50
2022-10-03T20:16:16.546Z,9.50
2022-10-03T20:18:48.333Z,9.50
2022-10-03T20:21:20.398Z,9.50
2022-10-03T20:23:49.403Z,9.50
2022-10-03T20:26:26.225Z,9.50
2022-10-03T20:29:16.343Z,9.50
2022-10-03T20:31:45.358Z,9.40
2022-10-03T20:34:17.516Z,9.40
2022-10-03T20:36:50.411Z,9.40
2022-10-03T20:39:22.195Z,9.50
2022-10-03T20:42:01.696Z,9.40
2022-10-03T20:44:47.261Z,9.40
2022-10-03T20:47:25.329Z,9.40
2022-10-03T20:49:57.338Z,9.40
2022-10-03T20:52:26.656Z,9.40
2022-10-03T20:54:59.735Z,9.40
2022-10-03T20:57:30.788Z,9.40
2022-10-03T21:00:08.042Z,9.40
2022-10-03T21:02:41.987Z,9.40
2022-10-03T21:05:21.109Z,9.30
2022-10-03T21:07:52.880Z,9.30
2022-10-03T21:10:28.881Z,9.30
2022-10-03T21:13:00.232Z,9.30
2022-10-03T21:15:40.489Z,9.20
2022-10-03T21:18:18.031Z,9.30
2022-10-03T21:20:50.905Z,9.20
2022-10-03T21:23:25.083Z,9.20
2022-10-03T21:25:58.723Z,9.20
2022-10-03T21:28:31.516Z,9.30
2022-10-03T21:31:25.407Z,9.30
2022-10-03T21:34:00.977Z,9.30
2022-10-03T21:36:49.549Z,9.30
2022-10-03T21:39:21.981Z,9.30
2022-10-03T21:42:03.449Z,9.30
2022-10-03T21:44:54.315Z,9.30
2022-10-03T21:47:42.353Z,9.30
2022-10-03T21:50:18.778Z,9.30
2022-10-03T21:53:04.790Z,9.40
2022-10-03T21:56:08.954Z,9.30
2022-10-03T21:58:52.263Z,9.30
2022-10-03T22:01:31.484Z,9.30
2022-10-03T22:04:05.627Z,9.30
2022-10-03T22:06:39.113Z,9.30
2022-10-03T22:09:14.396Z,9.30
2022-10-03T22:11:47.228Z,9.40
2022-10-03T22:14:24.140Z,9.40
2022-10-03T22:16:57.994Z,9.40
2022-10-03T22:19:37.230Z,9.40
2022-10-03T22:22:27.992Z,9.40
2022-10-03T22:25:10.661Z,9.40
2022-10-03T22:27:46.824Z,9.40
2022-10-03T22:30:18.862Z,9.40
2022-10-03T22:32:56.507Z,9.40
2022-10-03T22:35:45.371Z,9.40
2022-10-03T22:38:14.352Z,9.40
2022-10-03T22:40:44.745Z,9.40
2022-10-03T22:43:15.648Z,9.40
2022-10-03T22:45:48.638Z,9.40
2022-10-03T22:48:21.840Z,9.40
2022-10-03T22:50:50.763Z,9.40
2022-10-03T22:53:22.935Z,9.50
2022-10-03T22:55:58.631Z,9.50
2022-10-03T22:58:28.316Z,9.50
2022-10-03T23:00:59.465Z,9.50
2022-10-03T23:03:30.212Z,9.50
2022-10-03T23:06:20.391Z,9.50
2022-10-03T23:08:59.047Z,9.50
2022-10-03T23:11:30.432Z,9.50
2022-10-03T23:14:02.420Z,9.50
2022-10-03T23:16:46.557Z,9.50
2022-10-03T23:19:25.647Z,9.50
2022-10-03T23:21:57.013Z,9.50
2022-10-03T23:24:28.740Z,9.50
2022-10-03T23:27:33.865Z,9.50
2022-10-03T23:30:50.882Z,9.50
2022-10-03T23:33:39.170Z,9.50
2022-10-03T23:36:16.990Z,9.50
2022-10-03T23:39:02.874Z,9.50
2022-10-03T23:41:56.274Z,9.50
2022-10-03T23:44:43.661Z,9.50
2022-10-03T23:47:17.392Z,9.50
2022-10-03T23:49:48.351Z,9.50
2022-10-03T23:52:22.201Z,9.50
2022-10-03T23:54:51.427Z,9.50
2022-10-03T23:57:21.264Z,9.50
2022-10-03T23:59:51.538Z,9.50
